sensor_id;sensor_type;location;lat;lon;timestamp;pressure;altitude;pressure_sealevel;temperature;humidity
77975;BME280;67164;51.202;0.278;2023-03-30T00:01:51;99990.16;;;23.98;38.47
77975;BME280;67164;51.202;0.278;2023-03-30T00:04:17;99983.01;;;23.95;38.51
77975;BME280;67164;51.202;0.278;2023-03-30T00:06:43;99995.32;;;23.84;38.50
77975;BME280;67164;51.202;0.278;2023-03-30T00:09:09;99983.60;;;24.01;38.61
77975;BME280;67164;51.202;0.278;2023-03-30T00:11:34;99986.21;;;23.73;38.61
77975;BME280;67164;51.202;0.278;2023-03-30T00:14:01;99988.39;;;24.19;38.63
77975;BME280;67164;51.202;0.278;2023-03-30T00:16:26;99973.32;;;23.69;38.57
77975;BME280;67164;51.202;0.278;2023-03-30T00:18:52;99978.86;;;23.69;38.57
77975;BME280;67164;51.202;0.278;2023-03-30T00:21:18;99980.20;;;23.91;38.54
77975;BME280;67164;51.202;0.278;2023-03-30T00:23:43;99983.48;;;23.64;38.53
77975;BME280;67164;51.202;0.278;2023-03-30T00:26:09;99991.40;;;23.82;38.58
77975;BME280;67164;51.202;0.278;2023-03-30T00:28:35;99992.11;;;23.80;38.60
77975;BME280;67164;51.202;0.278;2023-03-30T00:31:01;99988.86;;;24.01;38.51
77975;BME280;67164;51.202;0.278;2023-03-30T00:33:27;99989.11;;;24.01;38.56
77975;BME280;67164;51.202;0.278;2023-03-30T00:35:55;99991.77;;;23.72;38.57
77975;BME280;67164;51.202;0.278;2023-03-30T00:38:19;99982.33;;;23.72;38.56
77975;BME280;67164;51.202;0.278;2023-03-30T00:40:50;99990.93;;;23.94;38.57
77975;BME280;67164;51.202;0.278;2023-03-30T00:43:10;99987.47;;;23.68;38.55
77975;BME280;67164;51.202;0.278;2023-03-30T00:45:37;99987.30;;;23.42;38.60
77975;BME280;67164;51.202;0.278;2023-03-30T00:48:05;99986.84;;;23.88;38.56
77975;BME280;67164;51.202;0.278;2023-03-30T00:50:32;99990.16;;;23.89;38.53
77975;BME280;67164;51.202;0.278;2023-03-30T00:52:55;99983.80;;;23.63;38.56
77975;BME280;67164;51.202;0.278;2023-03-30T00:55:22;99983.30;;;23.85;38.52
77975;BME280;67164;51.202;0.278;2023-03-30T00:57:45;99985.08;;;23.36;38.51
77975;BME280;67164;51.202;0.278;2023-03-30T01:00:12;99983.10;;;23.60;38.52
77975;BME280;67164;51.202;0.278;2023-03-30T01:02:41;99987.95;;;23.58;38.53
77975;BME280;67164;51.202;0.278;2023-03-30T01:05:03;99988.81;;;23.78;38.54
77975;BME280;67164;51.202;0.278;2023-03-30T01:07:29;99983.94;;;23.80;38.53
77975;BME280;67164;51.202;0.278;2023-03-30T01:09:54;99989.56;;;23.52;38.56
77975;BME280;67164;51.202;0.278;2023-03-30T01:12:20;99990.61;;;23.51;38.50
77975;BME280;67164;51.202;0.278;2023-03-30T01:14:46;99988.20;;;23.48;38.53
77975;BME280;67164;51.202;0.278;2023-03-30T01:17:18;99992.00;;;23.70;38.48
77975;BME280;67164;51.202;0.278;2023-03-30T01:22:14;99969.79;;;23.45;38.48
77975;BME280;67164;51.202;0.278;2023-03-30T01:24:44;99972.42;;;23.21;38.43
77975;BME280;67164;51.202;0.278;2023-03-30T01:26:57;99967.12;;;23.25;38.36
77975;BME280;67164;51.202;0.278;2023-03-30T01:29:32;99970.42;;;23.71;38.36
77975;BME280;67164;51.202;0.278;2023-03-30T01:39:12;99972.28;;;23.43;38.35
77975;BME280;67164;51.202;0.278;2023-03-30T01:41:33;99974.97;;;23.61;38.31
77975;BME280;67164;51.202;0.278;2023-03-30T01:44:00;99976.30;;;23.35;38.33
77975;BME280;67164;51.202;0.278;2023-03-30T01:46:25;99971.34;;;23.55;38.33
77975;BME280;67164;51.202;0.278;2023-03-30T01:48:52;99967.45;;;23.56;38.36
77975;BME280;67164;51.202;0.278;2023-03-30T01:51:18;99975.50;;;23.49;38.34
77975;BME280;67164;51.202;0.278;2023-03-30T01:53:44;99976.77;;;23.25;38.35
77975;BME280;67164;51.202;0.278;2023-03-30T01:56:08;99972.81;;;23.48;38.38
77975;BME280;67164;51.202;0.278;2023-03-30T01:58:34;99974.38;;;23.46;38.36
77975;BME280;67164;51.202;0.278;2023-03-30T02:00:58;99968.86;;;23.44;38.38
77975;BME280;67164;51.202;0.278;2023-03-30T02:03:25;99966.79;;;23.41;38.36
77975;BME280;67164;51.202;0.278;2023-03-30T02:05:52;99964.70;;;23.39;38.35
77975;BME280;67164;51.202;0.278;2023-03-30T02:08:17;99967.27;;;23.40;38.36
77975;BME280;67164;51.202;0.278;2023-03-30T02:10:40;99967.79;;;23.13;38.37
77975;BME280;67164;51.202;0.278;2023-03-30T02:13:06;99962.34;;;23.12;38.39
77975;BME280;67164;51.202;0.278;2023-03-30T02:15:33;99971.05;;;23.37;38.35
77975;BME280;67164;51.202;0.278;2023-03-30T02:17:57;99978.31;;;23.12;38.36
77975;BME280;67164;51.202;0.278;2023-03-30T02:20:23;99980.71;;;23.57;38.38
77975;BME280;67164;51.202;0.278;2023-03-30T02:22:48;99979.53;;;23.30;38.42
77975;BME280;67164;51.202;0.278;2023-03-30T02:25:14;99986.42;;;23.32;38.42
77975;BME280;67164;51.202;0.278;2023-03-30T02:27:40;99984.40;;;23.26;38.41
77975;BME280;67164;51.202;0.278;2023-03-30T02:30:07;99983.18;;;23.20;38.47
77975;BME280;67164;51.202;0.278;2023-03-30T02:32:39;99990.53;;;23.22;38.43
77975;BME280;67164;51.202;0.278;2023-03-30T02:35:12;99985.40;;;23.20;38.42
77975;BME280;67164;51.202;0.278;2023-03-30T02:37:34;99985.16;;;23.48;38.39
77975;BME280;67164;51.202;0.278;2023-03-30T02:39:59;99983.26;;;23.01;38.41
77975;BME280;67164;51.202;0.278;2023-03-30T02:42:26;99976.97;;;23.21;38.39
77975;BME280;67164;51.202;0.278;2023-03-30T02:44:43;99979.53;;;23.21;38.38
77975;BME280;67164;51.202;0.278;2023-03-30T02:47:09;99977.19;;;23.17;38.40
77975;BME280;67164;51.202;0.278;2023-03-30T02:49:45;99973.89;;;23.20;38.38
77975;BME280;67164;51.202;0.278;2023-03-30T02:52:06;99980.59;;;23.18;38.38
77975;BME280;67164;51.202;0.278;2023-03-30T02:54:30;99985.98;;;23.19;38.38
77975;BME280;67164;51.202;0.278;2023-03-30T02:56:55;99986.62;;;23.14;38.40
77975;BME280;67164;51.202;0.278;2023-03-30T02:59:19;99986.24;;;23.17;38.38
77975;BME280;67164;51.202;0.278;2023-03-30T03:01:43;99987.19;;;23.12;38.40
77975;BME280;67164;51.202;0.278;2023-03-30T03:04:08;99988.95;;;23.09;38.43
77975;BME280;67164;51.202;0.278;2023-03-30T03:06:33;99991.43;;;23.27;38.48
77975;BME280;67164;51.202;0.278;2023-03-30T03:08:58;99994.92;;;23.02;38.47
77975;BME280;67164;51.202;0.278;2023-03-30T03:11:24;99988.09;;;22.77;38.50
77975;BME280;67164;51.202;0.278;2023-03-30T03:13:50;99989.44;;;23.00;38.49
77975;BME280;67164;51.202;0.278;2023-03-30T03:16:16;99994.40;;;23.23;38.50
77975;BME280;67164;51.202;0.278;2023-03-30T03:18:41;99997.79;;;22.98;38.52
77975;BME280;67164;51.202;0.278;2023-03-30T03:21:08;99993.41;;;23.19;38.52
77975;BME280;67164;51.202;0.278;2023-03-30T03:23:34;99993.94;;;23.26;38.45
77975;BME280;67164;51.202;0.278;2023-03-30T03:25:59;99992.01;;;22.99;38.45
77975;BME280;67164;51.202;0.278;2023-03-30T03:28:25;99993.24;;;22.94;38.51
77975;BME280;67164;51.202;0.278;2023-03-30T03:30:51;99994.17;;;22.92;38.52
77975;BME280;67164;51.202;0.278;2023-03-30T03:33:16;99993.68;;;23.17;38.51
77975;BME280;67164;51.202;0.278;2023-03-30T03:35:42;99996.39;;;22.90;38.54
77975;BME280;67164;51.202;0.278;2023-03-30T03:38:08;99996.40;;;22.87;38.55
77975;BME280;67164;51.202;0.278;2023-03-30T03:40:34;99996.65;;;22.91;38.50
77975;BME280;67164;51.202;0.278;2023-03-30T03:42:59;99996.19;;;23.08;38.57
77975;BME280;67164;51.202;0.278;2023-03-30T03:45:25;100000.50;;;23.14;38.50
77975;BME280;67164;51.202;0.278;2023-03-30T03:47:51;100001.49;;;22.89;38.51
77975;BME280;67164;51.202;0.278;2023-03-30T03:50:16;100000.31;;;23.08;38.54
77975;BME280;67164;51.202;0.278;2023-03-30T03:52:42;99998.15;;;23.11;38.51
77975;BME280;67164;51.202;0.278;2023-03-30T03:55:10;100003.34;;;23.06;38.54
77975;BME280;67164;51.202;0.278;2023-03-30T03:57:37;100003.79;;;22.78;38.57
77975;BME280;67164;51.202;0.278;2023-03-30T04:00:04;100003.25;;;22.84;38.52
77975;BME280;67164;51.202;0.278;2023-03-30T04:02:26;100001.50;;;22.84;38.49
77975;BME280;67164;51.202;0.278;2023-03-30T04:04:51;99998.36;;;23.04;38.52
77975;BME280;67164;51.202;0.278;2023-03-30T04:07:17;100000.09;;;22.97;38.58
77975;BME280;67164;51.202;0.278;2023-03-30T04:09:43;100006.89;;;22.72;38.60
77975;BME280;67164;51.202;0.278;2023-03-30T04:12:09;100009.95;;;22.75;38.57
77975;BME280;67164;51.202;0.278;2023-03-30T04:14:35;100012.89;;;22.74;38.54
77975;BME280;67164;51.202;0.278;2023-03-30T04:17:00;100018.64;;;22.94;38.60
77975;BME280;67164;51.202;0.278;2023-03-30T04:19:26;100018.98;;;22.67;38.61
77975;BME280;67164;51.202;0.278;2023-03-30T04:21:52;100021.79;;;23.17;38.54
77975;BME280;67164;51.202;0.278;2023-03-30T04:24:18;100029.64;;;22.97;38.50
77975;BME280;67164;51.202;0.278;2023-03-30T04:26:44;100035.70;;;22.68;38.54
77975;BME280;67164;51.202;0.278;2023-03-30T04:29:09;100034.14;;;22.92;38.54
77975;BME280;67164;51.202;0.278;2023-03-30T04:31:35;100031.86;;;22.88;38.57
77975;BME280;67164;51.202;0.278;2023-03-30T04:34:01;100031.06;;;22.86;38.60
77975;BME280;67164;51.202;0.278;2023-03-30T04:36:27;100032.66;;;22.82;38.63
77975;BME280;67164;51.202;0.278;2023-03-30T04:38:53;100030.29;;;22.80;38.66
77975;BME280;67164;51.202;0.278;2023-03-30T04:41:18;100027.17;;;22.80;38.62
77975;BME280;67164;51.202;0.278;2023-03-30T04:43:44;100030.52;;;22.80;38.63
77975;BME280;67164;51.202;0.278;2023-03-30T04:46:10;100030.60;;;22.56;38.62
77975;BME280;67164;51.202;0.278;2023-03-30T04:48:36;100034.34;;;22.55;38.60
77975;BME280;67164;51.202;0.278;2023-03-30T04:51:02;100043.05;;;22.60;38.56
77975;BME280;67164;51.202;0.278;2023-03-30T04:53:27;100043.35;;;22.80;38.56
77975;BME280;67164;51.202;0.278;2023-03-30T04:55:53;100043.76;;;22.73;38.64
77975;BME280;67164;51.202;0.278;2023-03-30T04:58:19;100051.34;;;22.73;38.63
77975;BME280;67164;51.202;0.278;2023-03-30T05:00:45;100055.46;;;22.47;38.64
77975;BME280;67164;51.202;0.278;2023-03-30T05:03:11;100056.93;;;22.94;38.63
77975;BME280;67164;51.202;0.278;2023-03-30T05:05:37;100058.51;;;22.70;38.64
77975;BME280;67164;51.202;0.278;2023-03-30T05:08:03;100062.42;;;22.67;38.67
77975;BME280;67164;51.202;0.278;2023-03-30T05:10:28;100064.76;;;22.65;38.64
77975;BME280;67164;51.202;0.278;2023-03-30T05:12:54;100068.56;;;22.48;38.60
77975;BME280;67164;51.202;0.278;2023-03-30T05:15:20;100074.88;;;22.92;38.62
77975;BME280;67164;51.202;0.278;2023-03-30T05:17:46;100075.35;;;22.90;38.60
77975;BME280;67164;51.202;0.278;2023-03-30T05:20:11;100076.93;;;22.89;38.63
77975;BME280;67164;51.202;0.278;2023-03-30T05:22:37;100080.72;;;22.41;38.63
77975;BME280;67164;51.202;0.278;2023-03-30T05:25:04;100084.15;;;22.68;38.56
77975;BME280;67164;51.202;0.278;2023-03-30T05:27:28;100085.46;;;22.44;38.59
77975;BME280;67164;51.202;0.278;2023-03-30T05:29:54;100085.72;;;22.68;38.57
77975;BME280;67164;51.202;0.278;2023-03-30T05:32:21;100089.56;;;22.85;38.64
77975;BME280;67164;51.202;0.278;2023-03-30T05:34:46;100097.67;;;22.64;38.63
77975;BME280;67164;51.202;0.278;2023-03-30T05:37:12;100098.22;;;22.84;38.65
77975;BME280;67164;51.202;0.278;2023-03-30T05:39:38;100097.18;;;22.56;38.64
77975;BME280;67164;51.202;0.278;2023-03-30T05:42:03;100106.48;;;22.36;38.90
77975;BME280;67164;51.202;0.278;2023-03-30T05:44:29;100115.33;;;22.52;38.70
77975;BME280;67164;51.202;0.278;2023-03-30T05:46:55;100113.67;;;22.49;38.94
77975;BME280;67164;51.202;0.278;2023-03-30T05:49:21;100111.24;;;22.60;38.73
77975;BME280;67164;51.202;0.278;2023-03-30T05:51:47;100115.43;;;22.54;38.88
77975;BME280;67164;51.202;0.278;2023-03-30T05:54:13;100118.46;;;22.76;39.25
77975;BME280;67164;51.202;0.278;2023-03-30T05:56:38;100125.21;;;22.40;39.15
77975;BME280;67164;51.202;0.278;2023-03-30T05:59:04;100126.03;;;22.68;39.08
77975;BME280;67164;51.202;0.278;2023-03-30T06:01:30;100130.24;;;22.71;39.12
77975;BME280;67164;51.202;0.278;2023-03-30T06:03:56;100133.89;;;22.74;39.09
77975;BME280;67164;51.202;0.278;2023-03-30T06:06:22;100138.82;;;22.74;39.08
77975;BME280;67164;51.202;0.278;2023-03-30T06:08:47;100141.65;;;22.73;39.12
77975;BME280;67164;51.202;0.278;2023-03-30T06:11:13;100143.08;;;22.77;39.06
77975;BME280;67164;51.202;0.278;2023-03-30T06:13:38;100144.42;;;22.54;39.09
77975;BME280;67164;51.202;0.278;2023-03-30T06:16:04;100145.89;;;22.75;39.28
77975;BME280;67164;51.202;0.278;2023-03-30T06:18:30;100154.41;;;22.78;39.09
77975;BME280;67164;51.202;0.278;2023-03-30T06:20:56;100151.62;;;22.76;39.30
77975;BME280;67164;51.202;0.278;2023-03-30T06:23:21;100155.77;;;22.53;39.34
77975;BME280;67164;51.202;0.278;2023-03-30T06:25:47;100153.17;;;22.54;39.42
77975;BME280;67164;51.202;0.278;2023-03-30T06:28:12;100154.37;;;22.78;39.40
77975;BME280;67164;51.202;0.278;2023-03-30T06:30:38;100153.48;;;22.76;39.40
77975;BME280;67164;51.202;0.278;2023-03-30T06:33:03;100158.13;;;22.52;39.38
77975;BME280;67164;51.202;0.278;2023-03-30T06:35:29;100154.01;;;22.97;39.36
77975;BME280;67164;51.202;0.278;2023-03-30T06:37:55;100161.22;;;22.98;39.33
77975;BME280;67164;51.202;0.278;2023-03-30T06:40:20;100164.37;;;22.71;39.36
77975;BME280;67164;51.202;0.278;2023-03-30T06:42:46;100172.65;;;22.63;39.59
77975;BME280;67164;51.202;0.278;2023-03-30T06:45:13;100181.36;;;22.96;39.45
77975;BME280;67164;51.202;0.278;2023-03-30T06:47:38;100186.74;;;22.74;39.47
77975;BME280;67164;51.202;0.278;2023-03-30T06:50:05;100184.23;;;22.99;39.38
77975;BME280;67164;51.202;0.278;2023-03-30T06:52:33;100184.83;;;22.52;39.39
77975;BME280;67164;51.202;0.278;2023-03-30T06:54:55;100186.63;;;22.76;39.40
77975;BME280;67164;51.202;0.278;2023-03-30T06:57:21;100189.16;;;22.72;39.57
77975;BME280;67164;51.202;0.278;2023-03-30T06:59:47;100191.19;;;22.72;39.45
77975;BME280;67164;51.202;0.278;2023-03-30T07:02:13;100189.49;;;22.71;39.53
77975;BME280;67164;51.202;0.278;2023-03-30T07:04:39;100197.13;;;22.45;39.66
77975;BME280;67164;51.202;0.278;2023-03-30T07:07:04;100196.66;;;22.72;39.54
77975;BME280;67164;51.202;0.278;2023-03-30T07:09:30;100198.77;;;22.72;39.54
77975;BME280;67164;51.202;0.278;2023-03-30T07:11:56;100194.43;;;22.71;39.54
77975;BME280;67164;51.202;0.278;2023-03-30T07:14:22;100199.60;;;22.96;39.45
77975;BME280;67164;51.202;0.278;2023-03-30T07:16:47;100200.36;;;22.49;39.55
77975;BME280;67164;51.202;0.278;2023-03-30T07:19:13;100204.87;;;22.73;39.53
77975;BME280;67164;51.202;0.278;2023-03-30T07:21:39;100193.71;;;22.46;39.64
77975;BME280;67164;51.202;0.278;2023-03-30T07:24:05;100191.47;;;22.43;39.77
77975;BME280;67164;51.202;0.278;2023-03-30T07:26:30;100204.41;;;22.90;39.69
77975;BME280;67164;51.202;0.278;2023-03-30T07:28:56;100202.26;;;22.73;39.52
77975;BME280;67164;51.202;0.278;2023-03-30T07:31:23;100204.30;;;22.72;39.57
77975;BME280;67164;51.202;0.278;2023-03-30T07:33:47;100203.56;;;22.49;39.50
77975;BME280;67164;51.202;0.278;2023-03-30T07:36:13;100203.98;;;22.97;39.53
77975;BME280;67164;51.202;0.278;2023-03-30T07:38:39;100201.65;;;22.49;39.54
77975;BME280;67164;51.202;0.278;2023-03-30T07:41:07;100205.70;;;22.73;39.58
77975;BME280;67164;51.202;0.278;2023-03-30T07:43:30;100213.35;;;22.98;39.61
77975;BME280;67164;51.202;0.278;2023-03-30T07:45:56;100219.03;;;22.72;39.67
77975;BME280;67164;51.202;0.278;2023-03-30T07:48:22;100217.00;;;22.43;39.73
77975;BME280;67164;51.202;0.278;2023-03-30T07:50:47;100215.21;;;22.68;39.60
77975;BME280;67164;51.202;0.278;2023-03-30T07:53:13;100229.99;;;22.90;39.73
77975;BME280;67164;51.202;0.278;2023-03-30T07:55:39;100231.05;;;22.41;39.77
77975;BME280;67164;51.202;0.278;2023-03-30T07:58:05;100232.04;;;22.65;39.71
77975;BME280;67164;51.202;0.278;2023-03-30T08:00:31;100235.98;;;22.42;39.70
77975;BME280;67164;51.202;0.278;2023-03-30T08:02:56;100236.24;;;22.65;39.76
77975;BME280;67164;51.202;0.278;2023-03-30T08:05:21;100230.42;;;22.87;39.80
77975;BME280;67164;51.202;0.278;2023-03-30T08:07:46;100237.40;;;22.39;39.76
77975;BME280;67164;51.202;0.278;2023-03-30T08:10:12;100239.32;;;22.63;39.73
77975;BME280;67164;51.202;0.278;2023-03-30T08:12:38;100245.28;;;22.37;39.83
77975;BME280;67164;51.202;0.278;2023-03-30T08:15:05;100247.90;;;22.62;39.78
77975;BME280;67164;51.202;0.278;2023-03-30T08:17:29;100247.51;;;22.63;39.76
77975;BME280;67164;51.202;0.278;2023-03-30T08:19:55;100257.77;;;22.63;39.80
77975;BME280;67164;51.202;0.278;2023-03-30T08:22:21;100252.24;;;22.85;39.90
77975;BME280;67164;51.202;0.278;2023-03-30T08:24:46;100259.56;;;22.63;39.87
77975;BME280;67164;51.202;0.278;2023-03-30T08:27:12;100254.09;;;22.56;40.08
77975;BME280;67164;51.202;0.278;2023-03-30T08:29:38;100257.95;;;22.53;40.01
77975;BME280;67164;51.202;0.278;2023-03-30T08:32:04;100262.79;;;22.39;40.24
77975;BME280;67164;51.202;0.278;2023-03-30T08:34:29;100261.56;;;22.74;40.08
77975;BME280;67164;51.202;0.278;2023-03-30T08:36:55;100256.96;;;22.74;40.00
77975;BME280;67164;51.202;0.278;2023-03-30T08:39:21;100264.24;;;22.84;39.95
77975;BME280;67164;51.202;0.278;2023-03-30T08:42:02;100267.39;;;22.60;39.83
77975;BME280;67164;51.202;0.278;2023-03-30T08:44:21;100269.26;;;22.64;39.85
77975;BME280;67164;51.202;0.278;2023-03-30T08:46:39;100270.85;;;22.33;40.29
77975;BME280;67164;51.202;0.278;2023-03-30T08:49:06;100275.02;;;22.56;40.35
77975;BME280;67164;51.202;0.278;2023-03-30T08:51:30;100277.12;;;22.62;40.32
77975;BME280;67164;51.202;0.278;2023-03-30T08:53:57;100281.52;;;22.69;40.07
77975;BME280;67164;51.202;0.278;2023-03-30T08:56:23;100282.21;;;22.95;40.02
77975;BME280;67164;51.202;0.278;2023-03-30T08:58:56;100289.47;;;22.71;40.08
77975;BME280;67164;51.202;0.278;2023-03-30T09:01:17;100294.12;;;22.43;40.15
77975;BME280;67164;51.202;0.278;2023-03-30T09:03:41;100291.26;;;22.16;40.20
77975;BME280;67164;51.202;0.278;2023-03-30T09:06:10;100289.91;;;22.63;40.13
77975;BME280;67164;51.202;0.278;2023-03-30T09:08:32;100294.96;;;22.62;40.08
77975;BME280;67164;51.202;0.278;2023-03-30T09:10:58;100294.89;;;22.59;40.21
77975;BME280;67164;51.202;0.278;2023-03-30T09:13:23;100298.84;;;22.61;40.08
77975;BME280;67164;51.202;0.278;2023-03-30T09:15:50;100290.06;;;22.60;40.02
77975;BME280;67164;51.202;0.278;2023-03-30T09:18:17;100294.32;;;22.82;39.99
77975;BME280;67164;51.202;0.278;2023-03-30T09:20:39;100288.90;;;22.56;39.86
77975;BME280;67164;51.202;0.278;2023-03-30T09:23:09;100285.08;;;22.36;40.06
77975;BME280;67164;51.202;0.278;2023-03-30T09:25:35;100287.87;;;22.00;40.71
77975;BME280;67164;51.202;0.278;2023-03-30T09:28:01;100290.34;;;21.79;41.25
77975;BME280;67164;51.202;0.278;2023-03-30T09:30:27;100296.02;;;21.57;42.03
77975;BME280;67164;51.202;0.278;2023-03-30T09:32:58;100294.50;;;21.40;42.42
77975;BME280;67164;51.202;0.278;2023-03-30T09:35:15;100300.94;;;21.52;42.28
77975;BME280;67164;51.202;0.278;2023-03-30T09:37:40;100301.65;;;20.82;43.18
77975;BME280;67164;51.202;0.278;2023-03-30T09:40:17;100299.73;;;21.34;43.20
77975;BME280;67164;51.202;0.278;2023-03-30T09:42:36;100301.24;;;21.34;43.27
77975;BME280;67164;51.202;0.278;2023-03-30T09:44:59;100294.98;;;21.50;43.12
77975;BME280;67164;51.202;0.278;2023-03-30T09:47:24;100296.05;;;21.21;43.20
77975;BME280;67164;51.202;0.278;2023-03-30T09:49:54;100305.32;;;21.21;43.63
77975;BME280;67164;51.202;0.278;2023-03-30T09:52:20;100309.11;;;21.42;43.37
77975;BME280;67164;51.202;0.278;2023-03-30T09:54:40;100307.33;;;20.99;43.44
77975;BME280;67164;51.202;0.278;2023-03-30T09:59:33;100311.47;;;21.25;43.46
77975;BME280;67164;51.202;0.278;2023-03-30T10:02:08;100317.10;;;21.26;43.46
77975;BME280;67164;51.202;0.278;2023-03-30T10:04:23;100323.45;;;21.08;43.42
77975;BME280;67164;51.202;0.278;2023-03-30T10:06:49;100318.49;;;21.28;43.44
77975;BME280;67164;51.202;0.278;2023-03-30T10:09:18;100321.55;;;21.61;43.36
77975;BME280;67164;51.202;0.278;2023-03-30T10:11:42;100315.00;;;21.12;43.44
77975;BME280;67164;51.202;0.278;2023-03-30T10:14:19;100309.50;;;21.38;43.41
77975;BME280;67164;51.202;0.278;2023-03-30T10:16:32;100306.13;;;21.48;43.35
77975;BME280;67164;51.202;0.278;2023-03-30T10:18:59;100305.57;;;21.59;43.19
77975;BME280;67164;51.202;0.278;2023-03-30T10:21:23;100307.58;;;21.56;43.22
77975;BME280;67164;51.202;0.278;2023-03-30T10:24:01;100310.99;;;21.30;43.19
77975;BME280;67164;51.202;0.278;2023-03-30T10:26:17;100312.30;;;21.82;43.01
77975;BME280;67164;51.202;0.278;2023-03-30T10:28:50;100317.69;;;21.39;43.15
77975;BME280;67164;51.202;0.278;2023-03-30T10:31:12;100316.61;;;21.37;43.67
77975;BME280;67164;51.202;0.278;2023-03-30T10:33:37;100316.90;;;21.84;43.50
77975;BME280;67164;51.202;0.278;2023-03-30T10:35:59;100322.87;;;21.22;44.84
77975;BME280;67164;51.202;0.278;2023-03-30T10:38:22;100330.78;;;21.18;44.37
77975;BME280;67164;51.202;0.278;2023-03-30T10:40:53;100326.07;;;21.52;44.44
77975;BME280;67164;51.202;0.278;2023-03-30T10:43:14;100319.72;;;21.63;44.43
77975;BME280;67164;51.202;0.278;2023-03-30T10:45:40;100327.06;;;21.45;44.86
77975;BME280;67164;51.202;0.278;2023-03-30T10:48:17;100331.63;;;21.62;44.64
77975;BME280;67164;51.202;0.278;2023-03-30T10:50:34;100330.44;;;21.47;44.50
77975;BME280;67164;51.202;0.278;2023-03-30T10:53:06;100331.82;;;21.64;44.08
77975;BME280;67164;51.202;0.278;2023-03-30T10:55:23;100332.26;;;22.16;43.45
77975;BME280;67164;51.202;0.278;2023-03-30T10:57:50;100327.80;;;22.02;43.59
77975;BME280;67164;51.202;0.278;2023-03-30T11:00:20;100328.04;;;21.58;44.71
77975;BME280;67164;51.202;0.278;2023-03-30T11:02:45;100323.92;;;21.53;45.39
77975;BME280;67164;51.202;0.278;2023-03-30T11:05:07;100323.21;;;22.24;44.32
77975;BME280;67164;51.202;0.278;2023-03-30T11:07:32;100322.54;;;22.27;44.15
77975;BME280;67164;51.202;0.278;2023-03-30T11:09:56;100326.37;;;22.37;43.95
77975;BME280;67164;51.202;0.278;2023-03-30T11:12:20;100328.69;;;22.05;44.37
77975;BME280;67164;51.202;0.278;2023-03-30T11:14:47;100322.26;;;22.13;44.06
77975;BME280;67164;51.202;0.278;2023-03-30T11:17:15;100314.51;;;22.13;44.18
77975;BME280;67164;51.202;0.278;2023-03-30T11:19:38;100308.92;;;22.59;44.04
77975;BME280;67164;51.202;0.278;2023-03-30T11:22:03;100303.84;;;22.55;43.61
77975;BME280;67164;51.202;0.278;2023-03-30T11:24:27;100307.32;;;22.91;42.96
77975;BME280;67164;51.202;0.278;2023-03-30T11:26:56;100306.82;;;23.01;42.59
77975;BME280;67164;51.202;0.278;2023-03-30T11:29:26;100295.01;;;23.32;42.15
77975;BME280;67164;51.202;0.278;2023-03-30T11:31:48;100300.28;;;22.75;42.18
77975;BME280;67164;51.202;0.278;2023-03-30T11:34:12;100303.47;;;23.25;42.02
77975;BME280;67164;51.202;0.278;2023-03-30T11:36:36;100297.61;;;23.19;41.97
77975;BME280;67164;51.202;0.278;2023-03-30T11:39:00;100296.13;;;23.17;41.92
77975;BME280;67164;51.202;0.278;2023-03-30T11:41:26;100298.20;;;23.13;41.90
77975;BME280;67164;51.202;0.278;2023-03-30T11:43:48;100300.63;;;23.10;41.88
77975;BME280;67164;51.202;0.278;2023-03-30T11:46:16;100293.07;;;23.18;41.74
77975;BME280;67164;51.202;0.278;2023-03-30T11:48:56;100298.70;;;23.10;41.77
77975;BME280;67164;51.202;0.278;2023-03-30T11:51:14;100307.98;;;23.20;41.59
77975;BME280;67164;51.202;0.278;2023-03-30T11:53:32;100312.98;;;23.18;41.63
77975;BME280;67164;51.202;0.278;2023-03-30T11:56:06;100308.54;;;22.90;41.57
77975;BME280;67164;51.202;0.278;2023-03-30T11:58:27;100303.42;;;22.96;41.52
77975;BME280;67164;51.202;0.278;2023-03-30T12:00:52;100310.39;;;22.96;41.54
77975;BME280;67164;51.202;0.278;2023-03-30T12:03:18;100303.28;;;23.20;41.52
77975;BME280;67164;51.202;0.278;2023-03-30T12:05:41;100303.00;;;23.17;41.48
77975;BME280;67164;51.202;0.278;2023-03-30T12:08:15;100306.00;;;23.23;41.38
77975;BME280;67164;51.202;0.278;2023-03-30T12:10:34;100310.06;;;23.05;41.34
77975;BME280;67164;51.202;0.278;2023-03-30T12:12:55;100313.40;;;23.24;41.29
77975;BME280;67164;51.202;0.278;2023-03-30T12:15:31;100306.58;;;23.26;41.32
77975;BME280;67164;51.202;0.278;2023-03-30T12:17:49;100311.66;;;23.28;41.30
77975;BME280;67164;51.202;0.278;2023-03-30T12:20:20;100319.96;;;23.31;41.21
77975;BME280;67164;51.202;0.278;2023-03-30T12:22:41;100300.88;;;23.16;41.32
77975;BME280;67164;51.202;0.278;2023-03-30T12:25:13;100301.93;;;23.00;41.27
77975;BME280;67164;51.202;0.278;2023-03-30T12:27:34;100304.16;;;23.17;41.84
77975;BME280;67164;51.202;0.278;2023-03-30T12:32:22;100315.06;;;23.14;41.90
77975;BME280;67164;51.202;0.278;2023-03-30T12:34:45;100312.42;;;23.31;41.61
77975;BME280;67164;51.202;0.278;2023-03-30T12:37:14;100315.38;;;23.29;41.72
77975;BME280;67164;51.202;0.278;2023-03-30T12:39:40;100311.46;;;23.22;41.92
77975;BME280;67164;51.202;0.278;2023-03-30T12:42:05;100319.99;;;23.26;41.87
77975;BME280;67164;51.202;0.278;2023-03-30T12:44:34;100316.55;;;23.32;41.79
77975;BME280;67164;51.202;0.278;2023-03-30T12:47:04;100320.39;;;23.31;42.01
77975;BME280;67164;51.202;0.278;2023-03-30T12:49:25;100322.52;;;23.14;42.16
77975;BME280;67164;51.202;0.278;2023-03-30T12:51:55;100316.58;;;23.32;41.88
77975;BME280;67164;51.202;0.278;2023-03-30T12:54:24;100324.75;;;23.42;42.25
77975;BME280;67164;51.202;0.278;2023-03-30T12:56:45;100318.68;;;23.36;41.76
77975;BME280;67164;51.202;0.278;2023-03-30T12:59:17;100318.96;;;23.24;41.88